Airfield :
LOGIN :

Register | Disclaimer

   EN    FR    IT 

 










Legend :    VFR   Marginal VFR   IFR   Intensive IFR   Very Intensive IFR
Visi :
Ceiling :
>= 8 km
>= 3000ft
5 to 8 km
1000 to 3000 ft
1500m to 5 km
500 to 1000 ft
800 to 1500m
200 to 500 ft
< 800m
< 200 ft
Symbols :   Thunderstorms  Fog  Heavy snow  Heavy precipitations  Wind > 20 kt
SIGMETs :     Misc.  Thunderstorms  Icing  Turbulence  Mountain Waves  Volcanic Ashes






- Airport Elevation : 503 ft
- IATA code : BLE


ESSD - Borlange

CURRENT METAR :
  • 071420Z 30017KT CAVOK 10/01 Q1023

EXPIRED METARs :
  • 071350Z 31015KT CAVOK 10/01 Q1022
  • 071320Z 30016KT 9999 FEW032 BKN072 10/03 Q1022
  • 071250Z 28011KT CAVOK 09/04 Q1022
  • 071220Z 29012KT CAVOK 08/05 Q1021
  • 071150Z 32011KT 9999 SCT049 07/04 Q1020
  • 071120Z 31013KT 9999 BKN017 06/05 Q1020 REDZ

TAF TAF ESSD
Valid from the 07 at 12:00 until the 07 at 15:00 UTC


071130Z 0712/0715 30011KT 9999 BKN020



MET'MAP, your aeronautical weather chart ! - Copyright ORBIFLY December 2007 - Disclaimer

ORBIFLY MET'MAP TEAM :

Programming & Development : Alexandra Zaïnal
Concept & original design : Baudouin d'Aumeries
Assistance for programming : Marc-Olivier Méhu
Technical & hardware support : Manuel Goepfert

Contact : metmap@orbifly.com




SOURCES & CREDITS :

   NOAA